Time;durP1;ratioP1;P1;durP2;ratioP2;P2;SDS_P1;SDS_P2;PMS_P1;PMS_P2;Temp;Humidity;BMP_temperature;BMP_pressure;BME280_temperature;BME280_humidity;BME280_pressure;Samples;Min_cycle;Max_cycle;Signal;HPM_P1;HPM_P2
2023/06/23 00:00:22;;;;;;;14.03;11.63;;;;;;;;;;5062936;28;20282;-81
2023/06/23 00:02:48;;;;;;;14.47;11.87;;;;;;;;;;5066431;28;20184;-81
2023/06/23 00:05:14;;;;;;;14.77;12.40;;;;;;;;;;5071630;28;20229;-80
2023/06/23 00:07:40;;;;;;;14.27;11.57;;;;;;;;;;5035544;28;20246;-80
2023/06/23 00:10:06;;;;;;;13.53;11.70;;;;;;;;;;5018334;28;20228;-80
2023/06/23 00:12:37;;;;;;;14.57;12.10;;;;;;;;;;5048613;28;20184;-80
2023/06/23 00:20:13;;;;;;;19.17;12.23;;;;;;;;;;5037471;28;20196;-79
2023/06/23 00:22:40;;;;;;;14.53;11.70;;;;;;;;;;5038554;28;20194;-79
2023/06/23 00:25:09;;;;;;;13.87;11.90;;;;;;;;;;5055667;28;20215;-79
2023/06/23 00:27:35;;;;;;;14.43;12.07;;;;;;;;;;5054957;28;20302;-79
2023/06/23 00:30:02;;;;;;;13.23;11.33;;;;;;;;;;5042291;28;20188;-81
2023/06/23 00:32:28;;;;;;;14.20;11.33;;;;;;;;;;5055053;28;20187;-80
2023/06/23 00:34:54;;;;;;;14.47;11.40;;;;;;;;;;5031386;28;20226;-80
2023/06/23 00:37:20;;;;;;;13.10;11.27;;;;;;;;;;5032636;28;20203;-80
2023/06/23 00:39:46;;;;;;;16.23;11.73;;;;;;;;;;5035328;28;20192;-81
2023/06/23 00:42:12;;;;;;;13.23;11.07;;;;;;;;;;5053187;28;20202;-81
2023/06/23 00:44:38;;;;;;;14.07;10.83;;;;;;;;;;5053390;28;20192;-80
2023/06/23 00:47:05;;;;;;;12.50;11.30;;;;;;;;;;5055477;28;20231;-79
2023/06/23 00:49:31;;;;;;;13.40;10.47;;;;;;;;;;5066074;28;20184;-79
2023/06/23 00:52:02;;;;;;;13.27;11.37;;;;;;;;;;5071582;28;20191;-79
2023/06/23 00:54:28;;;;;;;13.67;11.13;;;;;;;;;;5065506;28;20187;-79
2023/06/23 00:56:58;;;;;;;14.00;11.17;;;;;;;;;;5036728;28;20192;-79
2023/06/23 00:59:28;;;;;;;13.40;11.03;;;;;;;;;;5048869;28;20180;-79
2023/06/23 01:01:54;;;;;;;12.93;11.17;;;;;;;;;;5034769;28;20184;-79
2023/06/23 01:04:22;;;;;;;13.20;11.37;;;;;;;;;;5063824;28;20270;-80
2023/06/23 01:06:55;;;;;;;14.53;11.77;;;;;;;;;;5049270;28;20208;-80
2023/06/23 01:09:26;;;;;;;13.20;11.77;;;;;;;;;;5050841;28;20225;-80
2023/06/23 01:11:55;;;;;;;13.93;11.70;;;;;;;;;;5051482;28;20227;-80
2023/06/23 01:14:32;;;;;;;15.93;11.30;;;;;;;;;;5035703;28;20168;-80
2023/06/23 01:17:06;;;;;;;14.60;11.83;;;;;;;;;;5050862;28;20180;-80
2023/06/23 01:19:55;;;;;;;14.53;11.53;;;;;;;;;;5050921;28;20183;-80
2023/06/23 01:22:21;;;;;;;18.63;11.93;;;;;;;;;;5050638;28;20181;-80
2023/06/23 01:24:47;;;;;;;15.53;11.50;;;;;;;;;;5115603;22;20291;-79
2023/06/23 01:27:40;;;;;;;13.57;12.17;;;;;;;;;;5111274;28;20205;-79
2023/06/23 01:30:09;;;;;;;14.00;11.73;;;;;;;;;;5071341;28;20187;-79
2023/06/23 01:32:42;;;;;;;16.20;12.37;;;;;;;;;;5091234;28;20270;-79
2023/06/23 01:35:10;;;;;;;14.60;12.23;;;;;;;;;;5091266;28;20262;-79
2023/06/23 01:37:37;;;;;;;16.53;12.50;;;;;;;;;;5091006;28;20175;-79
2023/06/23 01:40:07;;;;;;;13.47;11.90;;;;;;;;;;5074847;28;20179;-79
2023/06/23 01:42:34;;;;;;;13.07;11.77;;;;;;;;;;5090709;28;20198;-79
2023/06/23 01:45:03;;;;;;;15.17;12.57;;;;;;;;;;5090391;28;20187;-79
2023/06/23 01:47:32;;;;;;;16.77;12.37;;;;;;;;;;5100714;28;20305;-79
2023/06/23 01:50:01;;;;;;;16.20;12.47;;;;;;;;;;5110635;28;20213;-79
2023/06/23 01:52:28;;;;;;;15.10;12.77;;;;;;;;;;5110575;28;20184;-79
2023/06/23 01:54:54;;;;;;;14.80;12.63;;;;;;;;;;5110590;28;20174;-76
2023/06/23 01:57:20;;;;;;;14.40;12.83;;;;;;;;;;5109858;28;20214;-77
2023/06/23 01:59:47;;;;;;;14.03;12.07;;;;;;;;;;5057988;28;20222;-77
2023/06/23 02:02:15;;;;;;;14.00;12.57;;;;;;;;;;5080669;28;20225;-77
2023/06/23 02:04:42;;;;;;;16.40;13.20;;;;;;;;;;5092632;28;20178;-76
2023/06/23 02:07:11;;;;;;;14.97;12.97;;;;;;;;;;5109714;28;20214;-77
2023/06/23 02:09:38;;;;;;;15.13;13.50;;;;;;;;;;5096872;28;20171;-76
2023/06/23 02:12:06;;;;;;;15.77;13.30;;;;;;;;;;5064775;28;20186;-77
2023/06/23 02:14:32;;;;;;;18.07;13.77;;;;;;;;;;5093914;28;20202;-79
2023/06/23 02:16:59;;;;;;;18.83;13.57;;;;;;;;;;5110757;28;20187;-77
2023/06/23 02:19:26;;;;;;;15.80;13.50;;;;;;;;;;5092340;28;20198;-76
2023/06/23 02:21:53;;;;;;;15.20;13.70;;;;;;;;;;5093329;28;20186;-77
2023/06/23 02:24:20;;;;;;;15.67;14.00;;;;;;;;;;5092704;28;20226;-77
2023/06/23 02:26:47;;;;;;;17.03;14.23;;;;;;;;;;5082991;28;20309;-77
2023/06/23 02:29:15;;;;;;;15.47;13.87;;;;;;;;;;5081957;28;20256;-76
2023/06/23 02:31:41;;;;;;;16.97;14.53;;;;;;;;;;5074966;28;20214;-77
2023/06/23 02:34:08;;;;;;;17.27;15.10;;;;;;;;;;5093817;28;20197;-85
2023/06/23 02:36:54;;;;;;;16.53;15.00;;;;;;;;;;5096211;28;20182;-85
2023/06/23 02:39:20;;;;;;;16.53;14.90;;;;;;;;;;5096598;28;20170;-85
2023/06/23 02:41:48;;;;;;;16.63;15.03;;;;;;;;;;5082630;28;20178;-85
2023/06/23 02:44:16;;;;;;;16.47;14.97;;;;;;;;;;5096146;28;20206;-85
2023/06/23 02:46:44;;;;;;;18.10;16.17;;;;;;;;;;5095820;28;20185;-85
2023/06/23 02:49:12;;;;;;;19.00;15.67;;;;;;;;;;5095874;28;20177;-84
2023/06/23 02:51:40;;;;;;;18.83;16.43;;;;;;;;;;5095833;28;20181;-85
2023/06/23 02:54:08;;;;;;;18.17;16.03;;;;;;;;;;5096785;28;20166;-85
2023/06/23 02:56:35;;;;;;;18.10;16.20;;;;;;;;;;5095263;28;20210;-85
2023/06/23 02:59:05;;;;;;;19.13;14.73;;;;;;;;;;5094720;28;20175;-85
2023/06/23 03:01:33;;;;;;;19.33;17.13;;;;;;;;;;5096956;28;20171;-85
2023/06/23 03:04:00;;;;;;;18.43;16.50;;;;;;;;;;5094748;28;20178;-85
2023/06/23 03:06:26;;;;;;;23.13;17.33;;;;;;;;;;5075977;28;20209;-85
2023/06/23 03:08:52;;;;;;;19.37;17.10;;;;;;;;;;5093898;28;20179;-85
2023/06/23 03:11:19;;;;;;;19.90;16.87;;;;;;;;;;5058786;28;20210;-85
2023/06/23 03:13:46;;;;;;;18.50;16.30;;;;;;;;;;5093308;28;20179;-85
2023/06/23 03:16:31;;;;;;;19.07;16.70;;;;;;;;;;5060242;28;20216;-77
2023/06/23 03:19:04;;;;;;;19.83;17.73;;;;;;;;;;5073705;28;20171;-77
2023/06/23 03:21:30;;;;;;;19.20;17.00;;;;;;;;;;5089514;28;20198;-77
2023/06/23 03:23:59;;;;;;;22.50;17.50;;;;;;;;;;5082497;28;20242;-77
2023/06/23 03:26:28;;;;;;;23.47;18.63;;;;;;;;;;5109586;28;20186;-76
2023/06/23 03:28:55;;;;;;;21.87;18.90;;;;;;;;;;5093341;28;20193;-77
2023/06/23 03:31:22;;;;;;;20.87;18.67;;;;;;;;;;5112708;28;20170;-77
2023/06/23 03:33:48;;;;;;;21.30;18.90;;;;;;;;;;5096695;28;20179;-79
2023/06/23 03:36:21;;;;;;;22.27;19.23;;;;;;;;;;5105187;28;20182;-79
2023/06/23 03:38:53;;;;;;;24.73;20.33;;;;;;;;;;5108442;28;20183;-79
2023/06/23 03:41:20;;;;;;;23.40;20.53;;;;;;;;;;5085120;28;20213;-79
2023/06/23 03:43:49;;;;;;;23.43;20.67;;;;;;;;;;5110971;28;20187;-79
2023/06/23 03:46:23;;;;;;;25.10;20.83;;;;;;;;;;5098645;28;20190;-79
2023/06/23 03:48:52;;;;;;;23.10;20.87;;;;;;;;;;5112688;28;20259;-79
2023/06/23 03:51:19;;;;;;;25.43;22.57;;;;;;;;;;5098975;28;20215;-79
2023/06/23 03:53:46;;;;;;;25.53;22.70;;;;;;;;;;5058862;28;20187;-79
2023/06/23 03:56:12;;;;;;;25.77;23.03;;;;;;;;;;5075367;28;20183;-79
2023/06/23 03:58:39;;;;;;;28.30;23.77;;;;;;;;;;5075581;28;20184;-79
2023/06/23 04:01:06;;;;;;;28.23;23.33;;;;;;;;;;5075310;28;20262;-79
2023/06/23 04:03:33;;;;;;;27.67;24.73;;;;;;;;;;5089442;28;20201;-79
2023/06/23 04:06:00;;;;;;;26.60;23.73;;;;;;;;;;5097208;28;20198;-84
2023/06/23 04:08:28;;;;;;;30.53;25.30;;;;;;;;;;5113138;28;20296;-85
2023/06/23 04:10:57;;;;;;;29.57;26.33;;;;;;;;;;5096940;28;20179;-85
2023/06/23 04:13:23;;;;;;;30.27;25.00;;;;;;;;;;5096942;28;20174;-85
2023/06/23 04:15:51;;;;;;;29.83;26.67;;;;;;;;;;5080199;28;20174;-85
2023/06/23 04:18:18;;;;;;;35.57;28.10;;;;;;;;;;5093034;28;20180;-85
2023/06/23 04:20:45;;;;;;;30.27;26.40;;;;;;;;;;5081373;28;20187;-85
2023/06/23 04:23:11;;;;;;;32.33;28.60;;;;;;;;;;5077086;28;20227;-76
2023/06/23 04:25:38;;;;;;;33.87;29.03;;;;;;;;;;5075491;28;20203;-76
2023/06/23 04:28:05;;;;;;;34.07;29.63;;;;;;;;;;5075576;28;20253;-76
2023/06/23 04:30:33;;;;;;;38.03;31.87;;;;;;;;;;5062312;28;20206;-76
2023/06/23 04:32:59;;;;;;;37.80;30.63;;;;;;;;;;5095223;28;20183;-77
2023/06/23 04:35:25;;;;;;;37.53;32.00;;;;;;;;;;5095275;28;20223;-77
2023/06/23 04:38:03;;;;;;;19.17;16.85;;;;;;;;;;5080884;28;20436;-77
2023/06/23 04:40:29;;;;;;;33.30;29.83;;;;;;;;;;5073710;28;20263;-78
2023/06/23 04:43:09;;;;;;;37.00;30.73;;;;;;;;;;5082090;28;20202;-79
2023/06/23 04:45:37;;;;;;;38.00;32.63;;;;;;;;;;5115194;28;20190;-78
2023/06/23 04:48:06;;;;;;;40.63;33.37;;;;;;;;;;5110640;28;20230;-78
2023/06/23 04:50:34;;;;;;;43.93;35.37;;;;;;;;;;5114589;28;20182;-78
2023/06/23 04:53:09;;;;;;;44.70;35.80;;;;;;;;;;5095802;28;20170;-79
2023/06/23 04:55:36;;;;;;;43.40;35.17;;;;;;;;;;5094040;28;20190;-79
2023/06/23 04:58:04;;;;;;;49.27;38.47;;;;;;;;;;5077685;28;20214;-85
2023/06/23 05:00:30;;;;;;;52.70;40.87;;;;;;;;;;5094425;28;20217;-85
2023/06/23 05:02:57;;;;;;;53.03;42.43;;;;;;;;;;5094331;28;20178;-84
2023/06/23 05:05:24;;;;;;;59.07;43.37;;;;;;;;;;5065561;28;20179;-85
2023/06/23 05:07:51;;;;;;;57.63;44.47;;;;;;;;;;5074172;28;20207;-85
2023/06/23 05:10:19;;;;;;;58.00;45.80;;;;;;;;;;5075373;28;20186;-85
2023/06/23 05:12:46;;;;;;;59.10;44.03;;;;;;;;;;5103489;28;20179;-80
2023/06/23 05:15:13;;;;;;;56.40;43.93;;;;;;;;;;5090627;28;20259;-79
2023/06/23 05:17:39;;;;;;;53.47;43.47;;;;;;;;;;5110241;28;20193;-79
2023/06/23 05:20:07;;;;;;;52.73;42.33;;;;;;;;;;5093033;28;20264;-79
2023/06/23 05:22:35;;;;;;;53.97;43.67;;;;;;;;;;5094008;28;20184;-79
2023/06/23 05:25:04;;;;;;;57.73;43.87;;;;;;;;;;5088658;28;20227;-79
2023/06/23 05:27:30;;;;;;;55.93;43.80;;;;;;;;;;5099098;28;20232;-85
2023/06/23 05:29:57;;;;;;;54.67;43.53;;;;;;;;;;5110898;28;20270;-84
2023/06/23 05:32:24;;;;;;;51.70;41.27;;;;;;;;;;5094676;28;20187;-84
2023/06/23 05:34:51;;;;;;;52.50;42.97;;;;;;;;;;5112599;28;20178;-85
2023/06/23 05:37:20;;;;;;;59.43;43.30;;;;;;;;;;5110904;28;20183;-85
2023/06/23 05:39:47;;;;;;;50.90;42.87;;;;;;;;;;5111531;28;20257;-85
2023/06/23 05:42:13;;;;;;;54.30;42.70;;;;;;;;;;5111758;28;20246;-85
2023/06/23 05:44:39;;;;;;;48.90;40.47;;;;;;;;;;5103563;28;20184;-85
2023/06/23 05:47:07;;;;;;;45.97;39.87;;;;;;;;;;5077312;28;20206;-76
2023/06/23 05:49:37;;;;;;;47.27;39.27;;;;;;;;;;5091511;28;20190;-76
2023/06/23 05:52:04;;;;;;;44.47;39.60;;;;;;;;;;5110378;28;20178;-76
2023/06/23 05:54:34;;;;;;;47.73;39.90;;;;;;;;;;5109072;28;20181;-76
2023/06/23 05:57:02;;;;;;;46.70;39.37;;;;;;;;;;5085568;28;20209;-76
2023/06/23 05:59:33;;;;;;;46.23;38.37;;;;;;;;;;5093086;28;20178;-76
2023/06/23 06:02:00;;;;;;;28.10;25.40;;;;;;;;;;5086323;28;20418;-77
2023/06/23 06:04:30;;;;;;;33.30;29.70;;;;;;;;;;5074096;28;20251;-77
2023/06/23 06:06:57;;;;;;;31.17;27.90;;;;;;;;;;5104463;28;20210;-77
2023/06/23 06:09:26;;;;;;;34.43;30.10;;;;;;;;;;5109677;28;20265;-77
2023/06/23 06:11:52;;;;;;;34.63;30.93;;;;;;;;;;5092598;28;20171;-77
2023/06/23 06:14:19;;;;;;;35.57;30.87;;;;;;;;;;5093104;28;20199;-77
2023/06/23 06:16:47;;;;;;;36.93;31.20;;;;;;;;;;5093224;28;20186;-77
2023/06/23 06:19:14;;;;;;;34.70;31.03;;;;;;;;;;5092866;28;20202;-77
2023/06/23 06:21:41;;;;;;;33.23;29.63;;;;;;;;;;5092519;28;20253;-87
2023/06/23 06:24:09;;;;;;;39.00;34.80;;;;;;;;;;5075971;28;20226;-86
2023/06/23 06:26:35;;;;;;;53.37;47.37;;;;;;;;;;5076389;28;20182;-82
2023/06/23 06:29:05;;;;;;;65.90;55.87;;;;;;;;;;5072405;28;20206;-81
2023/06/23 06:31:34;;;;;;;52.93;47.30;;;;;;;;;;5103573;28;20186;-81
2023/06/23 06:34:00;;;;;;;39.40;35.10;;;;;;;;;;5094041;28;20166;-81
2023/06/23 06:36:27;;;;;;;39.60;33.63;;;;;;;;;;5109847;28;20182;-77
2023/06/23 06:38:54;;;;;;;37.07;32.03;;;;;;;;;;5092283;28;20210;-77
2023/06/23 06:41:21;;;;;;;40.10;32.10;;;;;;;;;;5079770;28;20236;-77
2023/06/23 06:43:47;;;;;;;34.70;30.43;;;;;;;;;;5091772;28;20202;-77
2023/06/23 06:46:14;;;;;;;36.77;31.23;;;;;;;;;;5107919;28;20186;-77
2023/06/23 06:48:40;;;;;;;105.30;96.40;;;;;;;;;;5075696;28;20213;-77
2023/06/23 06:51:06;;;;;;;39.27;35.13;;;;;;;;;;5094176;28;20174;-77
2023/06/23 06:53:32;;;;;;;36.73;32.73;;;;;;;;;;5094207;28;20198;-89
2023/06/23 06:55:59;;;;;;;34.80;31.10;;;;;;;;;;5094102;28;20179;-88
2023/06/23 06:58:25;;;;;;;33.63;30.07;;;;;;;;;;5076681;28;20221;-88
2023/06/23 07:00:53;;;;;;;31.67;28.30;;;;;;;;;;5092461;28;20277;-89
2023/06/23 07:03:19;;;;;;;31.80;28.40;;;;;;;;;;5119148;28;20272;-88
2023/06/23 07:05:45;;;;;;;31.30;28.00;;;;;;;;;;5124947;27;20189;-89
2023/06/23 07:08:11;;;;;;;30.67;27.47;;;;;;;;;;5117178;28;20250;-89
2023/06/23 07:10:38;;;;;;;34.07;26.90;;;;;;;;;;5084118;28;20181;-80
2023/06/23 07:13:04;;;;;;;27.80;24.67;;;;;;;;;;5105115;28;20178;-80
2023/06/23 07:15:30;;;;;;;26.53;23.73;;;;;;;;;;5086288;28;20186;-80
2023/06/23 07:17:56;;;;;;;28.33;23.97;;;;;;;;;;5096447;28;20189;-80
2023/06/23 07:20:22;;;;;;;25.63;22.90;;;;;;;;;;5093168;28;20179;-80
2023/06/23 07:22:48;;;;;;;26.93;22.60;;;;;;;;;;5102648;28;20269;-80
2023/06/23 07:25:14;;;;;;;24.13;21.57;;;;;;;;;;5092408;28;20280;-80
2023/06/23 07:27:40;;;;;;;24.80;22.13;;;;;;;;;;5076190;28;20207;-89
2023/06/23 07:30:09;;;;;;;22.53;20.17;;;;;;;;;;5059625;28;20189;-89
2023/06/23 07:32:35;;;;;;;25.70;19.40;;;;;;;;;;5060071;28;20218;-89
2023/06/23 07:35:02;;;;;;;20.33;17.90;;;;;;;;;;5064736;28;20217;-89
2023/06/23 07:37:28;;;;;;;19.77;17.77;;;;;;;;;;5092968;28;20244;-89
2023/06/23 07:39:54;;;;;;;18.27;16.37;;;;;;;;;;5092913;28;20183;-89
2023/06/23 07:42:21;;;;;;;16.97;15.27;;;;;;;;;;5092639;28;20183;-89
2023/06/23 07:44:46;;;;;;;17.47;15.40;;;;;;;;;;5092568;28;20222;-80
2023/06/23 07:47:13;;;;;;;16.33;14.53;;;;;;;;;;5079025;28;20219;-80
2023/06/23 07:49:39;;;;;;;16.17;14.23;;;;;;;;;;5095662;28;20179;-80
2023/06/23 07:52:05;;;;;;;15.60;13.97;;;;;;;;;;5095899;28;20198;-81
2023/06/23 07:54:31;;;;;;;27.83;24.80;;;;;;;;;;5094836;28;20187;-80
2023/06/23 07:56:57;;;;;;;18.90;15.23;;;;;;;;;;5104422;28;20184;-80
2023/06/23 07:59:26;;;;;;;16.53;11.90;;;;;;;;;;5112359;28;20185;-80
2023/06/23 08:01:53;;;;;;;14.30;12.30;;;;;;;;;;5069037;28;20214;-80
2023/06/23 08:04:20;;;;;;;16.00;14.40;;;;;;;;;;5104880;28;20206;-80
2023/06/23 08:06:46;;;;;;;14.83;13.33;;;;;;;;;;5058946;28;20206;-80
2023/06/23 08:09:12;;;;;;;13.53;11.97;;;;;;;;;;5074820;28;20175;-80
2023/06/23 08:11:38;;;;;;;14.40;12.90;;;;;;;;;;5094507;28;20197;-80
2023/06/23 08:14:05;;;;;;;18.63;13.40;;;;;;;;;;5095485;28;20236;-80
2023/06/23 08:16:31;;;;;;;14.27;12.80;;;;;;;;;;5108087;28;20187;-81
2023/06/23 08:18:57;;;;;;;12.43;11.10;;;;;;;;;;5095779;28;20179;-81
2023/06/23 08:21:23;;;;;;;10.90;9.90;;;;;;;;;;5095570;28;20186;-80
2023/06/23 08:23:49;;;;;;;12.13;10.20;;;;;;;;;;5095361;28;20238;-80
2023/06/23 08:26:16;;;;;;;10.40;9.33;;;;;;;;;;5095871;28;20189;-80
2023/06/23 08:28:42;;;;;;;12.03;9.60;;;;;;;;;;5078886;28;20215;-80
2023/06/23 08:31:08;;;;;;;18.37;16.50;;;;;;;;;;5074952;28;20240;-80
2023/06/23 08:33:34;;;;;;;11.57;9.80;;;;;;;;;;5058620;28;20185;-80
2023/06/23 08:36:00;;;;;;;10.50;9.50;;;;;;;;;;5086673;28;20187;-80
2023/06/23 08:38:26;;;;;;;11.73;8.67;;;;;;;;;;5094934;28;20191;-79
2023/06/23 08:40:53;;;;;;;11.63;10.20;;;;;;;;;;5096047;28;20202;-79
2023/06/23 08:43:25;;;;;;;11.07;9.10;;;;;;;;;;5096189;28;20181;-79
2023/06/23 08:45:54;;;;;;;11.57;8.63;;;;;;;;;;5072532;28;20290;-80
2023/06/23 08:48:21;;;;;;;10.13;9.07;;;;;;;;;;5092498;28;20206;-83
2023/06/23 08:50:47;;;;;;;8.68;7.78;;;;;;;;;;5093593;28;20225;-80
2023/06/23 08:53:13;;;;;;;8.83;7.93;;;;;;;;;;5094015;28;20201;-78
2023/06/23 08:55:40;;;;;;;8.43;7.57;;;;;;;;;;5077948;28;20184;-78
2023/06/23 08:58:06;;;;;;;7.30;6.60;;;;;;;;;;5094917;28;20246;-80
2023/06/23 09:00:32;;;;;;;8.00;6.80;;;;;;;;;;5094878;28;20187;-79
2023/06/23 09:02:58;;;;;;;7.63;6.80;;;;;;;;;;5094392;28;20186;-79
2023/06/23 09:05:24;;;;;;;5.95;5.35;;;;;;;;;;5078022;28;20183;-79
2023/06/23 09:07:50;;;;;;;5.78;5.25;;;;;;;;;;5094228;28;20207;-78
2023/06/23 09:10:18;;;;;;;14.40;12.82;;;;;;;;;;5076438;28;20176;-78
2023/06/23 09:13:03;;;;;;;9.38;7.50;;;;;;;;;;5076097;28;20175;-79
2023/06/23 09:15:29;;;;;;;6.97;6.32;;;;;;;;;;5094614;28;20200;-80
2023/06/23 09:17:56;;;;;;;7.32;6.57;;;;;;;;;;5058377;28;20214;-80
2023/06/23 09:20:22;;;;;;;7.55;6.05;;;;;;;;;;5073990;28;20274;-79
2023/06/23 09:22:48;;;;;;;6.35;5.65;;;;;;;;;;5073824;28;20187;-78
2023/06/23 09:25:33;;;;;;;7.70;5.80;;;;;;;;;;5090635;28;20227;-79
2023/06/23 09:27:59;;;;;;;6.30;5.70;;;;;;;;;;5092534;28;20287;-78
2023/06/23 09:30:33;;;;;;;5.90;5.22;;;;;;;;;;5071344;28;20183;-78
2023/06/23 09:32:59;;;;;;;6.57;5.90;;;;;;;;;;5081290;28;20229;-78
2023/06/23 09:35:25;;;;;;;5.22;4.28;;;;;;;;;;5077365;28;20183;-78
2023/06/23 09:37:51;;;;;;;4.88;4.47;;;;;;;;;;5087820;28;20202;-78
2023/06/23 09:40:25;;;;;;;5.45;4.85;;;;;;;;;;5075871;28;20179;-78
2023/06/23 09:42:56;;;;;;;6.47;4.90;;;;;;;;;;5073234;28;20179;-78
2023/06/23 09:45:23;;;;;;;6.50;5.40;;;;;;;;;;5074628;28;20171;-78
2023/06/23 09:47:49;;;;;;;5.22;4.72;;;;;;;;;;5094356;28;20228;-78
2023/06/23 09:50:16;;;;;;;6.97;5.40;;;;;;;;;;5076404;28;20178;-78
2023/06/23 09:52:42;;;;;;;5.68;4.97;;;;;;;;;;5092533;28;20228;-78
2023/06/23 09:55:08;;;;;;;6.18;5.53;;;;;;;;;;5093797;28;20178;-79
2023/06/23 09:57:34;;;;;;;5.45;4.95;;;;;;;;;;5094055;28;20170;-78
2023/06/23 10:00:00;;;;;;;5.90;5.30;;;;;;;;;;5072610;28;20179;-77
2023/06/23 10:02:27;;;;;;;6.70;5.90;;;;;;;;;;5073304;28;20274;-78
2023/06/23 10:05:01;;;;;;;7.53;6.00;;;;;;;;;;5073065;28;20170;-79
2023/06/23 10:07:27;;;;;;;6.03;5.43;;;;;;;;;;5073005;28;20264;-78
2023/06/23 10:09:57;;;;;;;6.70;5.60;;;;;;;;;;5073255;28;20171;-77
2023/06/23 10:12:26;;;;;;;6.75;5.40;;;;;;;;;;5094500;28;20178;-87
2023/06/23 10:14:52;;;;;;;5.45;4.65;;;;;;;;;;5074330;28;20207;-80
2023/06/23 10:17:18;;;;;;;4.70;4.30;;;;;;;;;;5073195;28;20194;-79
2023/06/23 10:19:45;;;;;;;6.05;5.40;;;;;;;;;;5073120;28;20250;-80
2023/06/23 10:22:13;;;;;;;5.65;4.93;;;;;;;;;;5079042;28;20195;-79
2023/06/23 10:24:39;;;;;;;7.20;4.60;;;;;;;;;;5091001;28;20302;-80
2023/06/23 10:27:05;;;;;;;5.22;4.72;;;;;;;;;;5073093;28;20210;-80
2023/06/23 10:29:32;;;;;;;5.80;4.35;;;;;;;;;;5092321;28;20195;-85
2023/06/23 10:31:59;;;;;;;4.88;3.97;;;;;;;;;;5091232;28;20178;-85
2023/06/23 10:34:25;;;;;;;3.95;3.42;;;;;;;;;;5093088;28;20196;-87
2023/06/23 10:36:55;;;;;;;7.15;4.13;;;;;;;;;;5076501;28;20312;-87
2023/06/23 10:39:21;;;;;;;5.18;4.15;;;;;;;;;;5093433;28;20170;-87
2023/06/23 10:41:51;;;;;;;4.30;3.60;;;;;;;;;;5083197;28;20254;-88
2023/06/23 10:44:17;;;;;;;4.85;3.90;;;;;;;;;;5070793;28;20186;-85
2023/06/23 10:46:44;;;;;;;5.55;4.32;;;;;;;;;;5084002;28;20159;-84
2023/06/23 10:49:10;;;;;;;5.50;4.03;;;;;;;;;;5077086;28;20206;-87
2023/06/23 10:51:37;;;;;;;4.72;4.32;;;;;;;;;;5072792;28;20182;-86
2023/06/23 10:54:05;;;;;;;5.78;4.60;;;;;;;;;;5092084;28;20178;-86
2023/06/23 10:56:32;;;;;;;5.10;4.30;;;;;;;;;;5094004;28;20171;-86
2023/06/23 10:58:58;;;;;;;8.25;4.57;;;;;;;;;;5086135;28;20220;-81
2023/06/23 11:01:26;;;;;;;5.22;4.60;;;;;;;;;;5100386;28;20202;-85
2023/06/23 11:03:53;;;;;;;6.95;4.40;;;;;;;;;;5087386;28;20198;-81
2023/06/23 11:06:45;;;;;;;5.13;4.30;;;;;;;;;;5086552;28;20174;-81
2023/06/23 11:09:30;;;;;;;5.57;3.63;;;;;;;;;;5077482;28;20221;-78
2023/06/23 11:11:59;;;;;;;5.60;4.20;;;;;;;;;;5084678;28;20248;-78
2023/06/23 11:14:25;;;;;;;7.55;4.03;;;;;;;;;;5085257;28;20253;-79
2023/06/23 11:16:51;;;;;;;5.15;4.47;;;;;;;;;;5081986;28;20244;-78
2023/06/23 11:19:27;;;;;;;6.82;4.43;;;;;;;;;;5070267;28;20179;-79
2023/06/23 11:22:08;;;;;;;6.15;4.40;;;;;;;;;;5081316;28;20228;-79
2023/06/23 11:24:34;;;;;;;4.20;3.80;;;;;;;;;;5087836;28;20313;-79
2023/06/23 11:27:03;;;;;;;4.18;3.78;;;;;;;;;;5092713;28;20182;-79
2023/06/23 11:29:31;;;;;;;6.28;4.10;;;;;;;;;;5090662;28;20335;-79
2023/06/23 11:32:13;;;;;;;4.70;3.67;;;;;;;;;;5084315;28;20178;-78
2023/06/23 11:35:00;;;;;;;5.97;3.40;;;;;;;;;;5085895;28;20175;-78
2023/06/23 11:37:31;;;;;;;5.05;3.75;;;;;;;;;;5092573;28;20178;-80
2023/06/23 11:39:57;;;;;;;5.72;3.60;;;;;;;;;;5093082;28;20174;-80
2023/06/23 11:42:23;;;;;;;4.75;4.15;;;;;;;;;;5076085;28;20189;-80
2023/06/23 11:44:49;;;;;;;5.82;4.18;;;;;;;;;;5092545;28;20183;-80
2023/06/23 11:47:16;;;;;;;4.53;3.83;;;;;;;;;;5092398;28;20204;-79
2023/06/23 11:49:43;;;;;;;6.00;3.90;;;;;;;;;;5075632;28;20259;-80
2023/06/23 11:52:09;;;;;;;4.82;3.78;;;;;;;;;;5095217;28;20178;-81
2023/06/23 11:54:38;;;;;;;7.85;3.60;;;;;;;;;;5080833;22;20239;-93
2023/06/23 11:57:04;;;;;;;4.18;3.60;;;;;;;;;;5092548;28;20183;-93
2023/06/23 11:59:39;;;;;;;10.23;3.97;;;;;;;;;;5080035;28;20206;-92
2023/06/23 12:02:11;;;;;;;4.78;3.60;;;;;;;;;;5079119;28;20184;-92
2023/06/23 12:04:45;;;;;;;3.75;3.42;;;;;;;;;;5059241;28;20186;-90
2023/06/23 12:07:13;;;;;;;4.97;3.80;;;;;;;;;;5085920;28;20206;-90
2023/06/23 12:12:47;;;;;;;;;;;;;;;;;;;;;
2023/06/23 12:15:17;;;;;;;4.18;3.50;;;;;;;;;;5110744;28;20213;-91
2023/06/23 12:17:43;;;;;;;4.05;3.60;;;;;;;;;;5096772;28;20211;-90
2023/06/23 12:23:32;;;;;;;3.95;3.53;;;;;;;;;;5034987;28;20196;-91
2023/06/23 12:26:06;;;;;;;3.90;3.30;;;;;;;;;;5017103;28;20192;-91
2023/06/23 12:29:01;;;;;;;5.45;3.45;;;;;;;;;;5040762;28;20249;-92
2023/06/23 12:35:41;;;;;;;;;;;;;;;;;;;;;
2023/06/23 12:41:16;;;;;;;5.60;3.58;;;;;;;;;;4900015;29;20177;-92
2023/06/23 12:47:01;;;;;;;3.78;3.40;;;;;;;;;;4899249;29;20179;-90
2023/06/23 12:52:48;;;;;;;4.32;3.20;;;;;;;;;;4896396;29;20209;-89
2023/06/23 12:55:31;;;;;;;3.58;3.28;;;;;;;;;;4899984;29;20279;-92
2023/06/23 12:58:20;;;;;;;6.80;3.70;;;;;;;;;;4936585;29;20184;-91
2023/06/23 13:01:15;;;;;;;;;;;;;;;;;;;;;
2023/06/23 13:03:46;;;;;;;3.88;3.50;;;;;;;;;;4936775;29;20184;-91
2023/06/23 13:15:50;;;;;;;;;;;;;;;;;;;;;
2023/06/23 13:21:41;;;;;;;7.25;3.72;;;;;;;;;;4944287;28;20203;-92
2023/06/23 13:34:05;;;;;;;;;;;;;;;;;;;;;
2023/06/23 13:40:00;;;;;;;7.63;3.78;;;;;;;;;;4907833;29;20188;-91
2023/06/23 13:58:13;;;;;;;10.02;7.22;;;;;;;;;;4926681;29;20268;-90
2023/06/23 14:00:42;;;;;;;4.47;3.55;;;;;;;;;;4996333;28;20231;-89
2023/06/23 14:03:42;;;;;;;7.13;3.15;;;;;;;;;;5012152;28;20177;-89
2023/06/23 14:06:11;;;;;;;5.00;3.80;;;;;;;;;;4994164;28;20196;-89
2023/06/23 14:11:24;;;;;;;4.82;3.50;;;;;;;;;;5044296;28;20176;-90
2023/06/23 14:23:47;;;;;;;3.85;3.20;;;;;;;;;;4915070;29;20193;-88
2023/06/23 14:44:48;;;;;;;19.42;17.63;;;;;;;;;;4937389;29;20187;-89
2023/06/23 14:47:16;;;;;;;5.78;3.60;;;;;;;;;;4952980;28;20241;-88
2023/06/23 14:49:42;;;;;;;5.57;3.75;;;;;;;;;;4985006;28;20342;-88
2023/06/23 14:52:11;;;;;;;5.00;3.70;;;;;;;;;;5010559;28;20182;-88
2023/06/23 14:54:37;;;;;;;4.15;3.75;;;;;;;;;;5037999;28;20223;-87
2023/06/23 14:57:06;;;;;;;5.00;3.75;;;;;;;;;;5055345;28;20190;-88
2023/06/23 15:00:09;;;;;;;;;;;;;;;;;;;;;
2023/06/23 15:08:54;;;;;;;5.00;3.15;;;;;;;;;;5001274;28;20308;-88
2023/06/23 15:11:27;;;;;;;5.97;3.30;;;;;;;;;;5072114;28;20182;-86
2023/06/23 15:13:53;;;;;;;6.32;3.08;;;;;;;;;;5071943;28;20180;-87
2023/06/23 15:16:37;;;;;;;3.78;3.40;;;;;;;;;;5069123;28;20179;-87
2023/06/23 15:19:04;;;;;;;5.88;3.70;;;;;;;;;;5055431;28;20266;-89
2023/06/23 15:21:33;;;;;;;4.57;3.40;;;;;;;;;;5054807;28;20200;-87
2023/06/23 15:24:08;;;;;;;7.68;3.72;;;;;;;;;;5056674;28;20179;-88
2023/06/23 15:26:54;;;;;;;10.50;3.90;;;;;;;;;;5074321;28;20175;-87
2023/06/23 15:29:46;;;;;;;43.30;38.90;;;;;;;;;;5075620;28;20199;-87
2023/06/23 15:38:58;;;;;;;5.32;3.72;;;;;;;;;;5058270;28;20248;-88
2023/06/23 15:41:27;;;;;;;4.57;3.88;;;;;;;;;;5058191;28;20215;-90
2023/06/23 15:44:27;;;;;;;;;;;;;;;;;;;;;
2023/06/23 15:57:09;;;;;;;;;;;;;;;;;;;;;
2023/06/23 16:02:58;;;;;;;;;;;;;;;;;;;;;
2023/06/23 16:05:42;;;;;;;4.35;3.90;;;;;;;;;;4932504;29;20189;-87
2023/06/23 16:08:50;;;;;;;;;;;;;;;;;;;;;
2023/06/23 16:11:16;;;;;;;5.07;4.30;;;;;;;;;;4918605;29;20189;-88
2023/06/23 16:16:49;;;;;;;9.30;4.88;;;;;;;;;;4919101;29;20187;-89
2023/06/23 16:28:17;;;;;;;9.43;4.70;;;;;;;;;;5061086;28;20271;-89
2023/06/23 16:30:48;;;;;;;9.52;5.00;;;;;;;;;;5058514;28;20179;-87
2023/06/23 16:33:27;;;;;;;8.00;5.18;;;;;;;;;;5058622;28;20175;-91
2023/06/23 16:35:53;;;;;;;5.57;4.38;;;;;;;;;;5073955;28;20213;-86
2023/06/23 16:38:19;;;;;;;7.32;4.80;;;;;;;;;;5041626;28;20214;-82
2023/06/23 16:40:45;;;;;;;7.55;4.85;;;;;;;;;;5073844;28;20217;-83
2023/06/23 16:43:18;;;;;;;5.32;4.78;;;;;;;;;;5058205;28;20211;-83
2023/06/23 16:45:45;;;;;;;4.93;4.47;;;;;;;;;;5055806;28;20175;-81
2023/06/23 16:48:11;;;;;;;5.60;4.47;;;;;;;;;;5039692;28;20235;-83
2023/06/23 16:50:39;;;;;;;6.60;4.78;;;;;;;;;;5057901;28;20460;-85
2023/06/23 16:53:07;;;;;;;7.68;4.70;;;;;;;;;;5057196;28;20179;-83
2023/06/23 16:55:33;;;;;;;9.40;4.20;;;;;;;;;;5057025;28;20245;-82
2023/06/23 16:57:59;;;;;;;6.68;4.55;;;;;;;;;;5072763;28;20247;-83
2023/06/23 17:00:27;;;;;;;4.97;4.47;;;;;;;;;;5073877;28;20187;-82
2023/06/23 17:02:53;;;;;;;6.20;4.47;;;;;;;;;;5055950;28;20213;-83